Time;durP1;ratioP1;P1;durP2;ratioP2;P2;SDS_P1;SDS_P2;PMS_P1;PMS_P2;Temp;Humidity;BMP_temperature;BMP_pressure;BME280_temperature;BME280_humidity;BME280_pressure;Samples;Min_cycle;Max_cycle;Signal;HPM_P1;HPM_P2
2023/10/16 00:01:09;;;;;;;1.95;0.70;;;;;;;9.17;76.44;93804.06;5063703;28;20028;-85
2023/10/16 00:03:38;;;;;;;1.40;0.70;;;;;;;9.13;76.18;93806.53;5063520;28;20025;-83
2023/10/16 00:06:05;;;;;;;1.70;0.95;;;;;;;9.13;75.69;93817.19;5063460;28;20095;-84
2023/10/16 00:08:33;;;;;;;1.30;0.70;;;;;;;9.13;75.66;93795.13;5062374;28;20082;-84
2023/10/16 00:11:03;;;;;;;1.35;0.75;;;;;;;9.20;75.07;93816.78;5063470;28;20024;-84
2023/10/16 00:13:30;;;;;;;1.30;0.90;;;;;;;9.18;74.45;93818.91;5062090;28;20040;-84
2023/10/16 00:16:02;;;;;;;1.27;0.70;;;;;;;9.21;74.01;93799.72;5062136;28;20024;-84
2023/10/16 00:18:33;;;;;;;0.65;0.55;;;;;;;9.22;73.65;93798.63;5063337;28;20232;-84
2023/10/16 00:20:59;;;;;;;1.50;0.73;;;;;;;9.27;73.70;93813.66;5063495;28;20029;-84
2023/10/16 00:23:30;;;;;;;1.48;0.85;;;;;;;9.26;73.62;93807.56;5063111;28;20196;-84
2023/10/16 00:25:56;;;;;;;1.00;0.65;;;;;;;9.31;73.25;93822.59;5063101;28;20074;-82
2023/10/16 00:28:22;;;;;;;1.50;0.65;;;;;;;9.21;72.86;93818.31;5061973;28;20329;-81
2023/10/16 00:30:49;;;;;;;1.42;0.82;;;;;;;9.15;73.88;93822.19;5061824;28;20024;-84
2023/10/16 00:33:14;;;;;;;1.63;0.80;;;;;;;9.18;74.07;93819.72;5062944;28;20016;-84
2023/10/16 00:35:45;;;;;;;1.17;0.70;;;;;;;9.15;74.31;93843.47;5061757;28;20044;-84
2023/10/16 00:38:13;;;;;;;0.80;0.60;;;;;;;9.08;73.29;93851.06;5062489;28;20025;-83
2023/10/16 00:40:40;;;;;;;1.25;0.90;;;;;;;9.08;72.69;93853.75;5062786;28;20029;-84
2023/10/16 00:43:12;;;;;;;5.00;1.00;;;;;;;9.06;71.33;93845.28;5062863;28;20020;-84
2023/10/16 00:45:46;;;;;;;1.63;1.00;;;;;;;8.97;71.40;93855.88;5063007;28;20321;-84
2023/10/16 00:48:19;;;;;;;1.73;0.93;;;;;;;8.94;70.90;93848.50;5062864;28;20024;-84
2023/10/16 00:50:49;;;;;;;1.42;0.93;;;;;;;8.83;71.46;93885.97;5061782;28;20046;-84
2023/10/16 00:53:20;;;;;;;2.33;1.00;;;;;;;8.77;71.69;93849.16;5062818;28;20021;-85
2023/10/16 00:55:47;;;;;;;1.35;0.88;;;;;;;8.76;71.90;93842.28;5061578;28;20024;-84
2023/10/16 00:58:14;;;;;;;1.67;1.02;;;;;;;8.71;71.67;93840.53;5062945;28;20032;-84
2023/10/16 01:00:45;;;;;;;3.72;1.10;;;;;;;8.76;71.82;93843.06;5062748;28;20318;-84
2023/10/16 01:03:11;;;;;;;3.58;1.17;;;;;;;8.79;71.83;93869.03;5062449;28;20040;-84
2023/10/16 01:05:39;;;;;;;4.30;1.55;;;;;;;8.72;71.77;93883.81;5062771;28;20029;-84
2023/10/16 01:08:07;;;;;;;1.98;1.23;;;;;;;8.67;72.03;93871.44;5063008;28;20086;-84
2023/10/16 01:10:34;;;;;;;6.53;1.70;;;;;;;8.73;72.62;93885.38;5062633;28;20096;-83
2023/10/16 01:13:01;;;;;;;2.40;1.55;;;;;;;8.70;72.89;93912.56;5062674;28;20013;-83
2023/10/16 01:15:27;;;;;;;4.75;1.90;;;;;;;8.58;73.25;93884.63;5062690;28;20020;-82
2023/10/16 01:17:53;;;;;;;3.72;1.75;;;;;;;8.48;73.86;93884.09;5062321;28;20052;-82
2023/10/16 01:20:18;;;;;;;3.30;1.90;;;;;;;8.43;74.12;93871.69;5062360;28;20103;-83
2023/10/16 01:22:52;;;;;;;5.63;2.25;;;;;;;8.35;74.49;93889.09;5061500;28;20024;-83
2023/10/16 01:25:18;;;;;;;3.33;2.00;;;;;;;8.27;74.84;93867.78;5062716;28;20035;-83
2023/10/16 01:27:44;;;;;;;3.15;2.15;;;;;;;8.18;75.47;93876.44;5062529;28;20017;-83
2023/10/16 01:30:10;;;;;;;3.25;2.50;;;;;;;8.11;76.09;93877.91;5061988;28;20016;-83
2023/10/16 01:32:38;;;;;;;3.33;2.25;;;;;;;8.06;76.58;93889.44;5061592;28;20092;-82
2023/10/16 01:35:08;;;;;;;4.93;2.88;;;;;;;7.94;76.98;93867.91;5061458;28;20024;-84
2023/10/16 01:37:38;;;;;;;8.88;2.67;;;;;;;7.79;77.52;93892.84;5061523;28;20065;-84
2023/10/16 01:40:17;;;;;;;7.78;2.70;;;;;;;7.77;77.99;93895.00;5062236;28;20029;-85
2023/10/16 01:42:42;;;;;;;4.93;3.30;;;;;;;7.72;78.23;93906.50;5062475;28;20091;-86
2023/10/16 01:45:08;;;;;;;3.90;2.50;;;;;;;7.77;78.36;93914.38;5062361;28;20029;-84
2023/10/16 01:47:34;;;;;;;4.80;2.60;;;;;;;7.72;78.47;93900.44;5062555;28;20024;-84
2023/10/16 01:50:01;;;;;;;5.05;3.00;;;;;;;7.75;78.22;93915.75;5063826;28;20095;-84
2023/10/16 01:52:27;;;;;;;6.80;3.65;;;;;;;7.79;78.33;93927.34;5065099;28;20071;-84
2023/10/16 01:54:53;;;;;;;5.63;4.00;;;;;;;7.83;78.35;93926.47;5065782;28;20464;-84
2023/10/16 01:57:21;;;;;;;6.10;3.95;;;;;;;7.84;78.51;93930.69;5064698;28;20241;-85
2023/10/16 01:59:49;;;;;;;6.82;4.13;;;;;;;7.84;78.50;93937.88;5066195;28;20086;-84
2023/10/16 02:02:17;;;;;;;5.95;4.13;;;;;;;7.84;78.54;93969.72;5065767;28;20020;-84
2023/10/16 02:04:43;;;;;;;7.40;4.35;;;;;;;7.90;78.45;93967.78;5065758;28;20080;-85
2023/10/16 02:07:08;;;;;;;8.30;4.95;;;;;;;7.84;78.98;93969.72;5064612;28;20020;-83
2023/10/16 02:09:36;;;;;;;12.13;5.05;;;;;;;7.88;78.74;93983.19;5064520;28;20027;-83
2023/10/16 02:12:10;;;;;;;5.32;3.90;;;;;;;7.86;78.65;93975.53;5065856;28;20052;-83
2023/10/16 02:14:39;;;;;;;4.85;3.92;;;;;;;7.89;78.44;93982.88;5065819;28;20183;-84
2023/10/16 02:17:05;;;;;;;5.60;3.55;;;;;;;7.90;77.43;93979.16;5065326;28;20020;-84
2023/10/16 02:19:31;;;;;;;4.95;3.47;;;;;;;7.93;77.52;93980.44;5065962;28;20032;-84
2023/10/16 02:21:56;;;;;;;6.93;4.55;;;;;;;7.92;76.26;93987.63;5065622;28;20312;-83
2023/10/16 02:24:22;;;;;;;12.15;3.60;;;;;;;7.91;73.62;93991.34;5065337;28;20040;-83
2023/10/16 02:26:56;;;;;;;6.95;3.60;;;;;;;8.00;72.89;93996.78;5065363;28;20025;-83
2023/10/16 02:29:25;;;;;;;8.00;3.83;;;;;;;8.00;73.19;93980.84;5065595;28;20039;-83
2023/10/16 02:31:51;;;;;;;4.55;3.28;;;;;;;7.98;72.20;93977.72;5065393;28;20017;-83
2023/10/16 02:34:22;;;;;;;4.15;3.15;;;;;;;7.98;72.24;93983.03;5064992;28;20314;-83
2023/10/16 02:36:51;;;;;;;4.87;3.53;;;;;;;7.97;72.07;93997.34;5065148;28;20021;-82
2023/10/16 02:39:35;;;;;;;4.97;3.53;;;;;;;7.91;71.40;93995.88;5065307;28;20055;-83
2023/10/16 02:42:05;;;;;;;6.55;3.85;;;;;;;7.94;71.44;93992.66;5065475;28;20063;-85
2023/10/16 02:44:32;;;;;;;8.40;4.00;;;;;;;8.00;71.25;93999.44;5065020;28;20371;-84
2023/10/16 02:46:58;;;;;;;4.78;3.47;;;;;;;7.98;70.61;93998.94;5065088;28;20233;-84
2023/10/16 02:49:24;;;;;;;6.40;3.72;;;;;;;7.97;70.47;94014.06;5064799;28;20045;-83
2023/10/16 02:51:52;;;;;;;5.55;3.08;;;;;;;7.92;69.64;94022.13;5065004;28;20028;-83
2023/10/16 02:54:17;;;;;;;4.38;2.80;;;;;;;7.86;69.37;94011.88;5064947;28;20056;-83
2023/10/16 02:56:44;;;;;;;4.93;2.95;;;;;;;7.87;69.81;94021.41;5064760;28;20028;-84
2023/10/16 02:59:11;;;;;;;6.32;3.40;;;;;;;7.83;69.36;94014.03;5064577;28;20070;-84
2023/10/16 03:01:37;;;;;;;5.03;3.47;;;;;;;7.78;69.17;94030.03;5063120;28;20222;-85
2023/10/16 03:04:04;;;;;;;5.00;2.70;;;;;;;7.79;69.17;94034.25;5064670;28;20028;-85
2023/10/16 03:06:31;;;;;;;3.92;2.65;;;;;;;7.70;69.31;94029.94;5064665;28;20052;-85
2023/10/16 03:09:25;;;;;;;4.43;2.85;;;;;;;7.71;69.13;94040.22;5064649;28;20025;-85
2023/10/16 03:11:42;;;;;;;6.63;3.30;;;;;;;7.64;69.43;94032.66;5064547;28;20035;-86
2023/10/16 03:14:07;;;;;;;6.20;3.75;;;;;;;7.64;69.54;94021.25;5064515;28;20021;-86
2023/10/16 03:16:36;;;;;;;6.15;3.00;;;;;;;7.74;69.22;94023.75;5064820;28;20021;-86
2023/10/16 03:19:16;;;;;;;3.45;2.53;;;;;;;7.63;69.42;94070.06;5063447;28;20253;-84
2023/10/16 03:21:45;;;;;;;4.85;3.25;;;;;;;7.64;69.67;94042.47;5064669;28;20033;-84
2023/10/16 03:24:10;;;;;;;9.80;3.78;;;;;;;7.66;69.33;94050.94;5064329;28;20311;-84
2023/10/16 03:26:42;;;;;;;7.07;3.40;;;;;;;7.61;69.51;94029.78;5064369;28;20032;-84
2023/10/16 03:29:07;;;;;;;9.43;3.60;;;;;;;7.67;69.52;94046.41;5064309;28;20017;-83
2023/10/16 03:31:39;;;;;;;6.63;4.03;;;;;;;7.71;69.42;94063.34;5064294;28;20024;-83
2023/10/16 03:34:08;;;;;;;4.68;3.60;;;;;;;7.67;69.59;94063.13;5063023;28;20020;-83
2023/10/16 03:36:34;;;;;;;4.90;3.50;;;;;;;7.69;69.11;94053.00;5064067;28;20020;-83
2023/10/16 03:39:03;;;;;;;5.25;3.13;;;;;;;7.66;69.01;94056.25;5064027;28;20047;-83
2023/10/16 03:41:32;;;;;;;7.13;3.92;;;;;;;7.69;69.29;94042.38;5063921;28;20249;-83
2023/10/16 03:44:18;;;;;;;4.78;3.17;;;;;;;7.68;69.17;94062.06;5063747;28;20027;-85
2023/10/16 03:46:44;;;;;;;6.03;3.67;;;;;;;7.64;69.21;94056.53;5063853;28;20021;-83
2023/10/16 03:49:12;;;;;;;7.05;4.60;;;;;;;7.65;69.07;94067.91;5063711;28;20203;-84
2023/10/16 03:51:39;;;;;;;6.30;4.13;;;;;;;7.63;69.36;94073.53;5063619;28;20062;-84
2023/10/16 03:54:11;;;;;;;5.15;3.67;;;;;;;7.56;68.87;94069.66;5062939;28;20245;-85
2023/10/16 03:56:37;;;;;;;6.43;4.00;;;;;;;7.54;69.17;94090.38;5062914;28;20091;-85
2023/10/16 03:59:02;;;;;;;5.35;3.90;;;;;;;7.53;69.36;94078.19;5063754;28;20064;-83
2023/10/16 04:01:28;;;;;;;6.40;4.22;;;;;;;7.52;69.24;94087.22;5062857;28;20334;-83
2023/10/16 04:03:57;;;;;;;7.53;3.40;;;;;;;7.50;69.35;94089.38;5063885;28;20119;-84
2023/10/16 04:06:27;;;;;;;6.43;4.53;;;;;;;7.53;68.76;94094.91;5063464;28;20047;-84
2023/10/16 04:08:54;;;;;;;7.35;4.25;;;;;;;7.47;68.69;94088.09;5062595;28;20028;-84
2023/10/16 04:11:21;;;;;;;4.20;3.28;;;;;;;7.40;69.19;94095.63;5063662;28;20070;-84
2023/10/16 04:13:49;;;;;;;7.45;4.28;;;;;;;7.46;69.10;94099.00;5062877;28;20187;-84
2023/10/16 04:16:42;;;;;;;7.97;4.05;;;;;;;7.48;68.97;94104.81;5063618;28;20020;-85
2023/10/16 04:21:44;;;;;;;5.13;3.72;;;;;;;7.42;68.36;94093.47;5063747;28;20108;-84
2023/10/16 04:26:57;;;;;;;9.88;3.75;;;;;;;7.39;68.57;94104.66;5063366;28;20067;-85
2023/10/16 04:29:33;;;;;;;8.20;4.03;;;;;;;7.42;68.24;94134.03;5063424;28;20029;-84
2023/10/16 04:32:19;;;;;;;7.03;4.45;;;;;;;7.42;68.08;94139.34;5063281;28;20059;-84
2023/10/16 04:34:52;;;;;;;5.93;4.15;;;;;;;7.42;68.16;94147.28;5063240;28;20268;-85
2023/10/16 04:37:31;;;;;;;5.65;4.25;;;;;;;7.41;68.08;94151.03;5063406;28;20024;-84
2023/10/16 04:47:42;;;;;;;5.88;3.47;;;;;;;7.44;67.61;94174.31;5063405;28;20283;-85
2023/10/16 04:50:09;;;;;;;7.00;3.50;;;;;;;7.36;67.96;94171.50;5062073;28;20063;-85
2023/10/16 05:13:17;;;;;;;6.75;3.45;;;;;;;7.22;68.61;94211.19;5063000;28;20214;-85
2023/10/16 05:15:20;;;;;;;8.73;4.00;;;;;;;7.21;68.70;94221.00;5062968;28;20017;-86
2023/10/16 05:17:59;;;;;;;8.38;3.80;;;;;;;7.28;68.56;94204.75;5062818;28;20036;-85
2023/10/16 06:14:48;;;;;;;7.32;3.38;;;;;;;7.80;64.93;94306.53;5065747;28;20023;-80
2023/10/16 06:17:15;;;;;;;5.28;2.85;;;;;;;7.88;63.81;94321.03;5064518;28;20100;-79
2023/10/16 06:19:42;;;;;;;8.43;2.72;;;;;;;7.93;63.49;94320.16;5065908;28;20082;-79
2023/10/16 06:22:09;;;;;;;4.05;2.42;;;;;;;7.95;63.39;94318.81;5065615;28;20029;-78
2023/10/16 06:27:21;;;;;;;9.18;2.60;;;;;;;7.99;62.27;94319.03;5065569;28;20044;-79
2023/10/16 06:29:50;;;;;;;8.68;3.10;;;;;;;8.02;62.57;94335.19;5065645;28;20217;-81
2023/10/16 06:32:19;;;;;;;6.15;2.28;;;;;;;8.00;61.07;94337.34;5065387;28;20029;-79
2023/10/16 06:34:46;;;;;;;6.63;2.55;;;;;;;8.08;61.27;94338.56;5065582;28;20333;-79
2023/10/16 06:37:16;;;;;;;9.00;2.38;;;;;;;8.25;60.80;94332.78;5064775;28;20020;-78
2023/10/16 06:39:45;;;;;;;8.68;2.60;;;;;;;8.29;61.31;94341.75;5065256;28;20029;-79
2023/10/16 06:42:17;;;;;;;3.65;2.10;;;;;;;8.24;60.57;94321.38;5065733;28;20024;-79
2023/10/16 06:44:50;;;;;;;6.50;2.50;;;;;;;8.41;60.93;94314.78;5065264;28;20025;-78
2023/10/16 06:47:16;;;;;;;5.15;2.17;;;;;;;8.53;60.00;94328.44;5065189;28;20033;-84
2023/10/16 06:49:42;;;;;;;5.43;2.20;;;;;;;8.59;59.66;94340.56;5065341;28;20040;-82
2023/10/16 06:52:17;;;;;;;4.47;1.73;;;;;;;8.55;58.77;94336.91;5063961;28;20020;-81
2023/10/16 06:54:44;;;;;;;5.70;2.13;;;;;;;8.55;57.87;94352.06;5064846;28;20025;-81
2023/10/16 06:57:13;;;;;;;5.40;2.33;;;;;;;8.35;58.48;94353.09;5063697;28;20044;-81
2023/10/16 06:59:46;;;;;;;5.45;2.33;;;;;;;8.20;59.27;94349.56;5065370;28;20023;-81
2023/10/16 07:02:15;;;;;;;5.22;2.30;;;;;;;8.19;59.12;94350.63;5065477;28;20218;-82
2023/10/16 07:04:46;;;;;;;5.47;2.38;;;;;;;8.07;59.40;94352.13;5064926;28;20358;-82
2023/10/16 07:07:16;;;;;;;4.83;2.23;;;;;;;7.97;60.06;94363.66;5064723;28;20092;-83
2023/10/16 07:09:54;;;;;;;5.72;2.47;;;;;;;8.00;60.64;94357.78;5064434;28;20025;-82
2023/10/16 07:12:22;;;;;;;8.38;2.42;;;;;;;8.07;59.97;94362.75;5064686;28;20028;-84
2023/10/16 07:14:55;;;;;;;6.93;1.88;;;;;;;8.21;59.54;94350.34;5063277;28;20017;-86
2023/10/16 07:17:28;;;;;;;3.85;1.98;;;;;;;8.23;58.77;94362.25;5064600;28;20017;-89
2023/10/16 07:19:59;;;;;;;4.65;1.98;;;;;;;8.27;58.54;94361.69;5064984;28;20066;-86
2023/10/16 07:22:31;;;;;;;6.03;2.30;;;;;;;8.31;58.52;94357.41;5064603;28;20306;-87
2023/10/16 07:25:02;;;;;;;3.80;1.87;;;;;;;8.09;58.65;94368.56;5064599;28;20088;-87
2023/10/16 07:27:30;;;;;;;7.75;1.90;;;;;;;8.15;58.92;94354.16;5063726;28;20307;-88
2023/10/16 07:29:56;;;;;;;2.85;1.77;;;;;;;8.11;58.68;94345.16;5064713;28;20029;-89
2023/10/16 07:32:21;;;;;;;4.50;2.38;;;;;;;8.24;58.83;94353.22;5063080;28;20029;-87
2023/10/16 07:34:47;;;;;;;3.85;2.00;;;;;;;8.38;58.67;94357.81;5064316;28;20025;-88
2023/10/16 07:37:13;;;;;;;6.32;2.17;;;;;;;8.50;58.60;94352.91;5063275;28;20071;-84
2023/10/16 07:39:39;;;;;;;4.60;1.77;;;;;;;8.50;57.58;94366.19;5064404;28;20028;-86
2023/10/16 07:42:04;;;;;;;5.72;2.25;;;;;;;8.54;57.71;94353.91;5064354;28;20044;-84
2023/10/16 07:44:30;;;;;;;5.57;1.75;;;;;;;8.66;57.16;94355.34;5066940;28;20024;-87
2023/10/16 07:46:58;;;;;;;4.93;1.95;;;;;;;8.79;57.78;94358.06;5065764;28;20036;-88
2023/10/16 07:49:25;;;;;;;5.80;1.58;;;;;;;9.00;56.93;94366.50;5066293;28;20029;-89
2023/10/16 07:51:52;;;;;;;17.23;2.33;;;;;;;9.10;55.78;94354.94;5068371;28;20092;-83
2023/10/16 07:54:20;;;;;;;3.50;1.70;;;;;;;9.19;55.02;94352.38;5065330;28;20043;-86
2023/10/16 07:56:52;;;;;;;4.68;2.13;;;;;;;9.27;54.74;94350.94;5063727;28;20105;-88
2023/10/16 07:59:20;;;;;;;;;;;;;;;9.16;53.66;94352.94;5064678;28;20029;-84
2023/10/16 08:01:52;;;;;;;4.60;1.48;;;;;;;9.27;54.67;94337.63;5064064;28;19904;-86
2023/10/16 08:06:47;;;;;;;8.50;2.10;;;;;;;9.47;53.35;94331.94;5064938;28;20033;-84
2023/10/16 08:09:48;;;;;;;3.75;1.50;;;;;;;9.56;52.86;94335.50;5065051;28;20032;-88
2023/10/16 08:12:34;;;;;;;4.28;1.63;;;;;;;9.73;50.49;94348.25;5064496;28;20033;-84
2023/10/16 08:15:03;;;;;;;10.07;2.00;;;;;;;9.87;50.63;94347.44;5063045;28;20057;-86
2023/10/16 08:17:32;;;;;;;4.15;1.63;;;;;;;9.72;50.37;94336.00;5063000;28;20047;-88
2023/10/16 08:19:58;;;;;;;5.72;1.58;;;;;;;9.78;50.22;94352.66;5063871;28;20033;-85
2023/10/16 08:22:25;;;;;;;2.85;1.35;;;;;;;9.73;48.89;94336.78;5063860;28;20031;-86
2023/10/16 08:25:04;;;;;;;3.63;1.58;;;;;;;9.76;49.73;94344.97;5063209;28;20028;-85
2023/10/16 08:27:49;;;;;;;10.48;1.88;;;;;;;9.85;49.48;94350.41;5063566;28;20029;-83
2023/10/16 08:30:18;;;;;;;16.98;1.60;;;;;;;9.89;48.51;94339.94;5063259;28;20238;-84
2023/10/16 08:35:19;;;;;;;4.88;1.83;;;;;;;9.84;48.55;94348.81;5063548;28;20013;-85
2023/10/16 08:37:56;;;;;;;5.45;1.50;;;;;;;9.87;48.87;94334.94;5063053;28;20021;-81
2023/10/16 08:40:34;;;;;;;5.60;1.67;;;;;;;9.99;48.93;94350.41;5063450;28;20024;-85
2023/10/16 08:43:01;;;;;;;5.00;1.60;;;;;;;10.04;48.33;94350.31;5063961;28;20029;-84
2023/10/16 08:45:32;;;;;;;4.95;1.42;;;;;;;10.08;47.68;94356.63;5063742;28;20230;-82
2023/10/16 08:47:58;;;;;;;4.20;1.55;;;;;;;10.01;46.78;94359.69;5063222;28;20210;-83
2023/10/16 08:50:42;;;;;;;9.30;1.73;;;;;;;10.00;46.80;94341.34;5062844;28;20025;-84
2023/10/16 08:53:30;;;;;;;6.85;1.50;;;;;;;10.03;47.17;94341.53;5062709;28;20017;-85
2023/10/16 08:55:56;;;;;;;2.90;1.35;;;;;;;10.10;46.20;94351.78;5063448;28;20040;-91
2023/10/16 08:58:22;;;;;;;3.10;0.95;;;;;;;10.14;45.05;94344.78;5064665;28;20024;-90
2023/10/16 09:00:49;;;;;;;3.30;1.42;;;;;;;10.30;45.60;94345.28;5063707;28;20021;-92
2023/10/16 09:03:19;;;;;;;3.72;1.40;;;;;;;10.32;46.09;94347.63;5065345;28;20063;-90
2023/10/16 09:05:45;;;;;;;3.50;1.58;;;;;;;10.43;46.63;94343.66;5064499;28;20025;-89
2023/10/16 09:08:14;;;;;;;4.95;1.40;;;;;;;10.53;45.15;94356.00;5064348;28;20035;-91
2023/10/16 09:10:41;;;;;;;6.72;1.67;;;;;;;10.59;43.69;94365.44;5064969;28;20063;-89
2023/10/16 09:13:17;;;;;;;8.10;1.50;;;;;;;10.61;43.77;94350.72;5064202;28;20031;-90
2023/10/16 09:15:46;;;;;;;5.38;1.42;;;;;;;10.70;44.36;94350.00;5064567;28;20142;-91
2023/10/16 09:18:14;;;;;;;7.97;1.38;;;;;;;10.69;44.28;94346.56;5064933;28;20048;-89
2023/10/16 09:20:42;;;;;;;6.05;1.35;;;;;;;10.77;44.60;94369.06;5061873;28;20044;-90
2023/10/16 09:23:22;;;;;;;2.67;1.27;;;;;;;10.83;43.74;94346.53;5062175;28;20025;-92
2023/10/16 09:25:47;;;;;;;4.18;1.35;;;;;;;10.91;43.32;94360.97;5062602;28;20036;-90
2023/10/16 09:28:19;;;;;;;6.82;1.02;;;;;;;10.83;43.58;94362.53;5061443;28;20048;-88
2023/10/16 09:30:45;;;;;;;4.33;0.90;;;;;;;10.80;43.24;94342.56;5062356;28;20096;-90
2023/10/16 09:33:12;;;;;;;3.40;1.33;;;;;;;10.75;43.64;94353.34;5063393;28;20017;-91
2023/10/16 09:35:43;;;;;;;4.45;1.05;;;;;;;10.69;43.72;94340.44;5063261;28;20096;-89
2023/10/16 09:38:17;;;;;;;4.82;1.40;;;;;;;10.73;42.98;94336.88;5063410;28;20031;-90
2023/10/16 09:40:58;;;;;;;9.57;2.55;;;;;;;10.89;42.59;94337.31;5062520;28;20328;-90
2023/10/16 09:43:24;;;;;;;7.03;1.55;;;;;;;10.98;43.15;94326.69;5063435;28;20094;-91
2023/10/16 09:46:21;;;;;;;2.58;1.40;;;;;;;10.93;42.15;94314.28;5062378;28;20120;-90
2023/10/16 09:48:37;;;;;;;2.42;1.10;;;;;;;11.10;41.61;94315.47;5064428;28;20031;-90
2023/10/16 09:51:04;;;;;;;5.63;1.20;;;;;;;11.21;41.64;94319.44;5065088;28;20028;-91
2023/10/16 09:53:30;;;;;;;4.60;1.60;;;;;;;11.34;41.60;94326.59;5065099;28;20027;-89
2023/10/16 09:56:02;;;;;;;8.18;1.60;;;;;;;11.41;41.81;94320.81;5064737;28;20092;-90
2023/10/16 09:58:33;;;;;;;6.50;1.08;;;;;;;11.44;41.47;94315.66;5064691;28;20033;-90
2023/10/16 10:01:09;;;;;;;2.22;0.98;;;;;;;11.49;40.00;94304.06;5064564;28;20024;-91
2023/10/16 10:03:36;;;;;;;4.32;1.30;;;;;;;11.57;40.28;94315.88;5064597;28;20089;-91
2023/10/16 10:06:08;;;;;;;6.25;1.17;;;;;;;11.53;40.03;94307.69;5065142;28;20323;-93
2023/10/16 10:11:38;;;;;;;5.10;1.30;;;;;;;11.48;40.43;94296.34;5064470;28;20096;-87
2023/10/16 10:14:26;;;;;;;6.85;1.48;;;;;;;11.47;40.26;94306.25;5064750;28;20017;-87
2023/10/16 10:16:58;;;;;;;2.45;1.17;;;;;;;11.49;39.92;94303.28;5064703;28;20075;-87
2023/10/16 10:19:39;;;;;;;3.05;1.27;;;;;;;11.56;40.11;94292.94;5065745;28;20233;-87
2023/10/16 10:22:17;;;;;;;3.08;1.15;;;;;;;11.57;39.81;94289.19;5066033;28;20040;-87
2023/10/16 10:24:50;;;;;;;8.88;1.25;;;;;;;11.58;39.33;94288.88;5066578;28;20051;-86
2023/10/16 10:27:17;;;;;;;5.57;1.13;;;;;;;11.68;39.69;94285.13;5065920;28;20033;-87
2023/10/16 10:29:48;;;;;;;3.55;1.45;;;;;;;11.70;39.06;94277.59;5065936;28;20219;-87
2023/10/16 10:32:14;;;;;;;2.93;1.40;;;;;;;11.86;38.87;94277.97;5065657;28;20027;-88
2023/10/16 10:34:40;;;;;;;3.67;1.60;;;;;;;11.96;38.42;94277.69;5064743;28;20277;-87
2023/10/16 10:37:44;;;;;;;2.00;1.08;;;;;;;11.94;38.05;94282.56;5064724;28;20052;-87
2023/10/16 10:40:18;;;;;;;5.18;1.33;;;;;;;11.99;37.71;94270.97;5023976;28;20089;-87
2023/10/16 10:42:45;;;;;;;3.67;1.20;;;;;;;11.98;38.43;94272.81;5024088;28;20029;-87
2023/10/16 10:45:17;;;;;;;3.65;1.58;;;;;;;12.08;38.34;94262.97;5036606;28;20083;-86
2023/10/16 10:47:43;;;;;;;4.15;1.27;;;;;;;12.08;37.71;94260.28;5064229;28;20086;-86
2023/10/16 10:50:13;;;;;;;4.63;1.10;;;;;;;12.19;38.32;94270.38;5065017;28;20282;-87
2023/10/16 10:52:39;;;;;;;3.05;0.93;;;;;;;12.27;38.89;94273.34;5065017;28;20311;-86
2023/10/16 10:55:27;;;;;;;3.72;1.85;;;;;;;12.24;37.94;94256.84;5064222;28;20020;-86
2023/10/16 10:57:57;;;;;;;2.75;1.08;;;;;;;12.22;37.81;94253.69;5064578;28;20083;-85
2023/10/16 11:03:05;;;;;;;7.03;1.35;;;;;;;12.18;37.86;94255.41;5064993;28;20025;-85
2023/10/16 11:05:31;;;;;;;4.75;1.15;;;;;;;12.16;37.78;94244.25;5065095;28;20329;-87
2023/10/16 11:10:44;;;;;;;3.08;1.38;;;;;;;12.38;37.35;94243.34;5065043;28;20055;-86
2023/10/16 11:13:12;;;;;;;6.68;1.05;;;;;;;12.44;37.32;94242.06;5065020;28;20226;-87
2023/10/16 11:15:54;;;;;;;2.40;1.10;;;;;;;12.60;36.89;94238.94;5064705;28;20021;-86
2023/10/16 11:18:22;;;;;;;5.07;1.30;;;;;;;12.75;37.13;94251.81;5064645;28;20085;-87
2023/10/16 11:20:58;;;;;;;4.13;1.00;;;;;;;12.78;36.58;94240.47;5064513;28;20065;-87
2023/10/16 11:23:31;;;;;;;1.90;0.90;;;;;;;12.88;35.41;94244.69;5064275;28;20219;-87
2023/10/16 11:25:58;;;;;;;2.50;1.10;;;;;;;12.95;35.41;94242.34;5064660;28;20378;-87
2023/10/16 11:28:32;;;;;;;8.25;1.30;;;;;;;13.00;34.64;94236.78;5064618;28;20219;-87
2023/10/16 11:30:59;;;;;;;2.35;1.15;;;;;;;13.04;34.50;94229.69;5064405;28;20057;-87
2023/10/16 11:33:45;;;;;;;3.70;1.33;;;;;;;13.11;34.67;94228.44;5064345;28;20020;-87
2023/10/16 11:36:13;;;;;;;5.80;1.90;;;;;;;13.15;35.25;94237.41;5063099;28;20062;-87
2023/10/16 11:38:39;;;;;;;3.58;1.30;;;;;;;13.22;35.16;94238.47;5064283;28;20044;-87
2023/10/16 11:41:26;;;;;;;2.42;0.90;;;;;;;13.23;34.47;94226.69;5067541;28;20040;-90
2023/10/16 11:43:51;;;;;;;2.28;0.88;;;;;;;13.34;34.91;94221.00;5068258;28;20033;-91
2023/10/16 11:51:45;;;;;;;5.15;1.20;;;;;;;13.77;34.02;94222.69;5066673;28;20032;-88
2023/10/16 11:54:11;;;;;;;1.95;1.00;;;;;;;13.81;34.07;94232.41;5065121;28;20055;-88
2023/10/16 11:56:41;;;;;;;3.00;1.40;;;;;;;13.84;32.88;94239.03;5064748;28;20020;-88
2023/10/16 11:59:09;;;;;;;3.10;1.02;;;;;;;13.77;33.70;94220.00;5064954;28;20222;-88
2023/10/16 12:01:37;;;;;;;2.63;1.27;;;;;;;14.00;34.13;94217.81;5063741;28;20104;-88
2023/10/16 12:04:03;;;;;;;4.80;0.88;;;;;;;14.09;33.01;94213.19;5064617;28;20073;-88
2023/10/16 12:06:28;;;;;;;6.55;2.00;;;;;;;14.25;33.84;94214.16;5064802;28;20029;-89
2023/10/16 12:08:54;;;;;;;2.88;1.15;;;;;;;14.41;32.39;94205.50;5063612;28;20025;-88
2023/10/16 12:11:20;;;;;;;2.75;0.98;;;;;;;14.52;32.11;94212.06;5063399;28;20024;-89
2023/10/16 12:13:46;;;;;;;8.77;1.38;;;;;;;14.49;32.30;94212.72;5064632;28;20314;-88
2023/10/16 12:16:22;;;;;;;1.17;0.65;;;;;;;14.51;31.89;94215.06;5064960;28;20024;-89
2023/10/16 12:18:47;;;;;;;2.90;1.40;;;;;;;14.57;32.13;94211.91;5063677;28;20037;-88
2023/10/16 12:21:16;;;;;;;4.70;0.98;;;;;;;14.59;31.21;94203.50;5062342;28;20075;-88
2023/10/16 12:23:42;;;;;;;6.30;1.17;;;;;;;14.72;31.18;94193.63;5063593;28;20029;-88
2023/10/16 12:26:07;;;;;;;3.17;1.30;;;;;;;14.73;30.73;94201.31;5063654;28;20304;-87
2023/10/16 12:28:33;;;;;;;2.80;1.25;;;;;;;14.73;31.48;94201.31;5062912;28;20095;-87
2023/10/16 12:30:59;;;;;;;5.90;1.33;;;;;;;14.63;31.61;94201.72;5063316;28;20040;-86
2023/10/16 12:33:25;;;;;;;2.88;0.98;;;;;;;14.55;31.55;94195.31;5062557;28;20257;-83
2023/10/16 12:35:57;;;;;;;5.70;1.20;;;;;;;14.66;31.74;94192.25;5063086;28;20336;-83
2023/10/16 12:38:25;;;;;;;3.13;1.25;;;;;;;14.80;31.14;94196.22;5061691;28;20025;-82
2023/10/16 12:40:55;;;;;;;8.00;0.98;;;;;;;14.87;30.40;94184.94;5062977;28;20029;-82
2023/10/16 12:43:21;;;;;;;3.58;1.60;;;;;;;14.96;30.39;94187.50;5062774;28;20055;-84
2023/10/16 12:45:50;;;;;;;2.05;1.10;;;;;;;14.98;30.02;94188.78;5062768;28;20245;-81
2023/10/16 12:48:17;;;;;;;3.40;1.23;;;;;;;15.26;30.71;94182.75;5062936;28;20025;-82
2023/10/16 12:50:47;;;;;;;6.25;0.95;;;;;;;15.70;30.95;94179.53;5063207;28;20075;-84
2023/10/16 12:53:13;;;;;;;4.97;1.00;;;;;;;16.18;29.69;94177.88;5062822;28;20028;-85
2023/10/16 12:55:40;;;;;;;3.30;1.50;;;;;;;16.63;29.51;94177.63;5062973;28;20319;-87
2023/10/16 12:58:10;;;;;;;5.28;0.98;;;;;;;16.85;27.53;94178.22;5062127;28;20258;-88
2023/10/16 13:00:39;;;;;;;2.42;0.68;;;;;;;16.75;27.21;94178.69;5062261;28;20037;-87
2023/10/16 13:03:15;;;;;;;5.57;1.42;;;;;;;16.68;27.09;94173.13;5063265;28;20021;-85
2023/10/16 13:05:43;;;;;;;4.13;1.20;;;;;;;16.77;27.53;94177.25;5061624;28;20054;-92
2023/10/16 13:08:09;;;;;;;3.90;1.75;;;;;;;16.93;27.65;94171.88;5062929;28;20052;-88
2023/10/16 13:10:36;;;;;;;2.53;1.00;;;;;;;17.09;27.04;94171.91;5061708;28;20365;-83
2023/10/16 13:13:02;;;;;;;4.95;1.33;;;;;;;17.36;27.91;94178.38;5061934;28;20070;-87
2023/10/16 13:15:39;;;;;;;7.43;1.45;;;;;;;17.59;27.42;94175.06;5063287;28;20031;-90
2023/10/16 13:18:11;;;;;;;4.10;1.00;;;;;;;17.88;29.86;94178.44;5061472;28;20063;-88
2023/10/16 13:20:37;;;;;;;4.28;1.10;;;;;;;18.14;29.04;94173.22;5061426;28;20044;-87
2023/10/16 13:23:05;;;;;;;3.92;1.00;;;;;;;18.23;25.46;94176.50;5062250;28;20025;-86
2023/10/16 13:25:31;;;;;;;5.22;2.17;;;;;;;18.32;27.19;94172.81;5062590;28;20342;-86
2023/10/16 13:27:58;;;;;;;5.18;1.30;;;;;;;18.30;25.94;94175.88;5062641;28;20031;-86
2023/10/16 13:30:25;;;;;;;5.15;1.30;;;;;;;18.16;27.45;94176.34;5062628;28;20025;-88
2023/10/16 13:32:51;;;;;;;4.78;1.10;;;;;;;18.31;28.72;94177.44;5062450;28;20245;-87
2023/10/16 13:35:17;;;;;;;1.88;0.80;;;;;;;18.54;28.16;94172.13;5062509;28;20031;-80
2023/10/16 13:37:47;;;;;;;6.18;1.17;;;;;;;18.80;26.10;94171.47;5062715;28;20032;-81
2023/10/16 13:40:20;;;;;;;4.80;1.60;;;;;;;19.17;25.94;94167.50;5061197;28;20029;-82